sensor_id;sensor_type;location;lat;lon;timestamp;temperature;humidity
33881;DHT22;20172;47.530;10.256;2022-11-30T00:00:48;6.10;99.90
33881;DHT22;20172;47.530;10.256;2022-11-30T00:03:14;6.10;99.90
33881;DHT22;20172;47.530;10.256;2022-11-30T00:05:39;6.00;99.90
33881;DHT22;20172;47.530;10.256;2022-11-30T00:08:05;6.00;99.90
33881;DHT22;20172;47.530;10.256;2022-11-30T00:10:30;5.90;99.90
33881;DHT22;20172;47.530;10.256;2022-11-30T00:12:56;5.80;99.90
33881;DHT22;20172;47.530;10.256;2022-11-30T00:15:21;5.80;99.90
33881;DHT22;20172;47.530;10.256;2022-11-30T00:17:47;5.70;99.90
33881;DHT22;20172;47.530;10.256;2022-11-30T00:20:13;5.70;99.90
33881;DHT22;20172;47.530;10.256;2022-11-30T00:22:38;5.70;99.90
33881;DHT22;20172;47.530;10.256;2022-11-30T00:25:04;5.70;99.90
33881;DHT22;20172;47.530;10.256;2022-11-30T00:27:30;5.70;99.90
33881;DHT22;20172;47.530;10.256;2022-11-30T00:29:56;5.70;99.90
33881;DHT22;20172;47.530;10.256;2022-11-30T00:32:22;5.70;99.90
33881;DHT22;20172;47.530;10.256;2022-11-30T00:34:48;5.70;99.90
33881;DHT22;20172;47.530;10.256;2022-11-30T00:37:13;5.70;99.90
33881;DHT22;20172;47.530;10.256;2022-11-30T00:39:39;5.70;99.90
33881;DHT22;20172;47.530;10.256;2022-11-30T00:42:05;5.70;99.90
33881;DHT22;20172;47.530;10.256;2022-11-30T00:44:30;5.70;99.90
33881;DHT22;20172;47.530;10.256;2022-11-30T00:46:56;5.80;99.90
33881;DHT22;20172;47.530;10.256;2022-11-30T00:49:24;5.90;99.90
33881;DHT22;20172;47.530;10.256;2022-11-30T00:51:49;6.00;99.90
33881;DHT22;20172;47.530;10.256;2022-11-30T00:54:15;6.00;99.90
33881;DHT22;20172;47.530;10.256;2022-11-30T00:56:40;5.90;99.90
33881;DHT22;20172;47.530;10.256;2022-11-30T00:59:06;5.90;99.90
33881;DHT22;20172;47.530;10.256;2022-11-30T01:01:31;5.90;99.90
33881;DHT22;20172;47.530;10.256;2022-11-30T01:03:57;6.00;99.90
33881;DHT22;20172;47.530;10.256;2022-11-30T01:06:22;6.00;99.90
33881;DHT22;20172;47.530;10.256;2022-11-30T01:08:48;6.00;99.90
33881;DHT22;20172;47.530;10.256;2022-11-30T01:11:15;6.00;99.90
33881;DHT22;20172;47.530;10.256;2022-11-30T01:13:41;6.00;99.90
33881;DHT22;20172;47.530;10.256;2022-11-30T01:16:07;6.00;99.90
33881;DHT22;20172;47.530;10.256;2022-11-30T01:18:34;5.90;99.90
33881;DHT22;20172;47.530;10.256;2022-11-30T01:21:00;5.90;99.90
33881;DHT22;20172;47.530;10.256;2022-11-30T01:23:29;5.90;99.90
33881;DHT22;20172;47.530;10.256;2022-11-30T01:25:54;5.90;99.90
33881;DHT22;20172;47.530;10.256;2022-11-30T01:28:20;5.80;99.90
33881;DHT22;20172;47.530;10.256;2022-11-30T01:30:54;5.90;99.90
33881;DHT22;20172;47.530;10.256;2022-11-30T01:33:19;5.80;99.90
33881;DHT22;20172;47.530;10.256;2022-11-30T01:35:45;5.90;99.90
33881;DHT22;20172;47.530;10.256;2022-11-30T01:38:10;5.90;99.90
33881;DHT22;20172;47.530;10.256;2022-11-30T01:40:36;5.90;99.90
33881;DHT22;20172;47.530;10.256;2022-11-30T01:43:01;5.90;99.90
33881;DHT22;20172;47.530;10.256;2022-11-30T01:45:27;5.90;99.90
33881;DHT22;20172;47.530;10.256;2022-11-30T01:47:53;5.90;99.90
33881;DHT22;20172;47.530;10.256;2022-11-30T01:52:46;6.00;99.90
33881;DHT22;20172;47.530;10.256;2022-11-30T01:55:13;6.10;99.90
33881;DHT22;20172;47.530;10.256;2022-11-30T01:57:41;6.20;99.90
33881;DHT22;20172;47.530;10.256;2022-11-30T02:00:09;6.20;99.90
33881;DHT22;20172;47.530;10.256;2022-11-30T02:02:41;6.10;99.90
33881;DHT22;20172;47.530;10.256;2022-11-30T02:05:08;6.20;99.90
33881;DHT22;20172;47.530;10.256;2022-11-30T02:07:34;6.20;99.90
33881;DHT22;20172;47.530;10.256;2022-11-30T02:10:00;6.10;99.90
33881;DHT22;20172;47.530;10.256;2022-11-30T02:14:52;6.10;99.90
33881;DHT22;20172;47.530;10.256;2022-11-30T02:17:36;6.10;99.90
33881;DHT22;20172;47.530;10.256;2022-11-30T02:22:55;6.10;99.90
33881;DHT22;20172;47.530;10.256;2022-11-30T02:30:17;6.20;99.90
33881;DHT22;20172;47.530;10.256;2022-11-30T02:35:19;6.20;99.90
33881;DHT22;20172;47.530;10.256;2022-11-30T02:37:46;6.20;99.90
33881;DHT22;20172;47.530;10.256;2022-11-30T02:40:14;6.30;99.90
33881;DHT22;20172;47.530;10.256;2022-11-30T02:42:41;6.30;99.90
33881;DHT22;20172;47.530;10.256;2022-11-30T02:45:06;6.10;99.90
33881;DHT22;20172;47.530;10.256;2022-11-30T02:47:35;6.00;99.90
33881;DHT22;20172;47.530;10.256;2022-11-30T02:50:13;5.90;99.90
33881;DHT22;20172;47.530;10.256;2022-11-30T02:52:40;5.90;99.90
33881;DHT22;20172;47.530;10.256;2022-11-30T02:55:07;5.80;99.90
33881;DHT22;20172;47.530;10.256;2022-11-30T02:57:32;5.90;99.90
33881;DHT22;20172;47.530;10.256;2022-11-30T02:59:58;6.00;99.90
33881;DHT22;20172;47.530;10.256;2022-11-30T03:02:25;6.00;99.90
33881;DHT22;20172;47.530;10.256;2022-11-30T03:04:51;6.10;99.90
33881;DHT22;20172;47.530;10.256;2022-11-30T03:07:16;6.00;99.90
33881;DHT22;20172;47.530;10.256;2022-11-30T03:09:42;5.90;99.90
33881;DHT22;20172;47.530;10.256;2022-11-30T03:12:07;5.90;99.90
33881;DHT22;20172;47.530;10.256;2022-11-30T03:14:33;5.90;99.90
33881;DHT22;20172;47.530;10.256;2022-11-30T03:17:01;6.00;99.90
33881;DHT22;20172;47.530;10.256;2022-11-30T03:19:27;6.10;99.90
33881;DHT22;20172;47.530;10.256;2022-11-30T03:21:52;6.10;99.90
33881;DHT22;20172;47.530;10.256;2022-11-30T03:24:18;6.10;99.90
33881;DHT22;20172;47.530;10.256;2022-11-30T03:26:43;6.10;99.90
33881;DHT22;20172;47.530;10.256;2022-11-30T03:29:09;6.10;99.90
33881;DHT22;20172;47.530;10.256;2022-11-30T03:31:34;6.10;99.90
33881;DHT22;20172;47.530;10.256;2022-11-30T03:34:00;5.90;99.90
33881;DHT22;20172;47.530;10.256;2022-11-30T03:36:25;5.90;99.90
33881;DHT22;20172;47.530;10.256;2022-11-30T03:38:51;6.00;99.90
33881;DHT22;20172;47.530;10.256;2022-11-30T03:41:17;6.00;99.90
33881;DHT22;20172;47.530;10.256;2022-11-30T03:43:43;6.00;99.90
33881;DHT22;20172;47.530;10.256;2022-11-30T03:46:09;6.10;99.90
33881;DHT22;20172;47.530;10.256;2022-11-30T03:48:34;6.10;99.90
33881;DHT22;20172;47.530;10.256;2022-11-30T03:51:03;6.20;99.90
33881;DHT22;20172;47.530;10.256;2022-11-30T03:53:28;6.20;99.90
33881;DHT22;20172;47.530;10.256;2022-11-30T03:55:55;6.20;99.90
33881;DHT22;20172;47.530;10.256;2022-11-30T03:58:21;6.20;99.90
33881;DHT22;20172;47.530;10.256;2022-11-30T04:00:47;6.20;99.90
33881;DHT22;20172;47.530;10.256;2022-11-30T04:03:12;6.10;99.90
33881;DHT22;20172;47.530;10.256;2022-11-30T04:05:38;6.10;99.90
33881;DHT22;20172;47.530;10.256;2022-11-30T04:08:03;6.20;99.90
33881;DHT22;20172;47.530;10.256;2022-11-30T04:10:29;6.10;99.90
33881;DHT22;20172;47.530;10.256;2022-11-30T04:12:54;6.10;99.90
33881;DHT22;20172;47.530;10.256;2022-11-30T04:15:20;6.10;99.90
33881;DHT22;20172;47.530;10.256;2022-11-30T04:17:45;6.00;99.90
33881;DHT22;20172;47.530;10.256;2022-11-30T04:20:11;6.00;99.90
33881;DHT22;20172;47.530;10.256;2022-11-30T04:22:37;6.00;99.90
33881;DHT22;20172;47.530;10.256;2022-11-30T04:25:02;5.90;99.90
33881;DHT22;20172;47.530;10.256;2022-11-30T04:27:28;5.80;99.90
33881;DHT22;20172;47.530;10.256;2022-11-30T04:29:53;5.80;99.90
33881;DHT22;20172;47.530;10.256;2022-11-30T04:32:19;5.80;99.90
33881;DHT22;20172;47.530;10.256;2022-11-30T04:34:44;5.80;99.90
33881;DHT22;20172;47.530;10.256;2022-11-30T04:37:10;6.00;99.90
33881;DHT22;20172;47.530;10.256;2022-11-30T04:39:35;6.00;99.90
33881;DHT22;20172;47.530;10.256;2022-11-30T04:42:01;5.90;99.90
33881;DHT22;20172;47.530;10.256;2022-11-30T04:44:26;5.70;99.90
33881;DHT22;20172;47.530;10.256;2022-11-30T04:46:52;5.70;99.90
33881;DHT22;20172;47.530;10.256;2022-11-30T04:49:17;5.70;99.90
33881;DHT22;20172;47.530;10.256;2022-11-30T04:51:43;5.70;99.90
33881;DHT22;20172;47.530;10.256;2022-11-30T04:54:08;5.70;99.90
33881;DHT22;20172;47.530;10.256;2022-11-30T04:56:34;5.80;99.90
33881;DHT22;20172;47.530;10.256;2022-11-30T04:59:00;5.80;99.90
33881;DHT22;20172;47.530;10.256;2022-11-30T05:01:25;5.90;99.90
33881;DHT22;20172;47.530;10.256;2022-11-30T05:03:51;5.90;99.90
33881;DHT22;20172;47.530;10.256;2022-11-30T05:06:16;5.90;99.90
33881;DHT22;20172;47.530;10.256;2022-11-30T05:08:42;6.00;99.90
33881;DHT22;20172;47.530;10.256;2022-11-30T05:11:07;5.90;99.90
33881;DHT22;20172;47.530;10.256;2022-11-30T05:13:33;5.80;99.90
33881;DHT22;20172;47.530;10.256;2022-11-30T05:15:58;5.80;99.90
33881;DHT22;20172;47.530;10.256;2022-11-30T05:18:24;5.80;99.90
33881;DHT22;20172;47.530;10.256;2022-11-30T05:20:50;5.80;99.90
33881;DHT22;20172;47.530;10.256;2022-11-30T05:23:17;5.90;99.90
33881;DHT22;20172;47.530;10.256;2022-11-30T05:25:42;6.00;99.90
33881;DHT22;20172;47.530;10.256;2022-11-30T05:28:08;6.10;99.90
33881;DHT22;20172;47.530;10.256;2022-11-30T05:30:34;6.20;99.90
33881;DHT22;20172;47.530;10.256;2022-11-30T05:32:59;6.10;99.90
33881;DHT22;20172;47.530;10.256;2022-11-30T05:35:25;6.00;99.90
33881;DHT22;20172;47.530;10.256;2022-11-30T05:37:53;6.10;99.90
33881;DHT22;20172;47.530;10.256;2022-11-30T05:40:19;6.10;99.90
33881;DHT22;20172;47.530;10.256;2022-11-30T05:42:44;6.10;99.90
33881;DHT22;20172;47.530;10.256;2022-11-30T05:45:10;6.00;99.90
33881;DHT22;20172;47.530;10.256;2022-11-30T05:47:35;6.10;99.90
33881;DHT22;20172;47.530;10.256;2022-11-30T05:50:01;6.00;99.90
33881;DHT22;20172;47.530;10.256;2022-11-30T05:52:26;6.00;99.90
33881;DHT22;20172;47.530;10.256;2022-11-30T05:54:52;6.00;99.90
33881;DHT22;20172;47.530;10.256;2022-11-30T05:57:17;6.00;99.90
33881;DHT22;20172;47.530;10.256;2022-11-30T05:59:43;6.00;99.90
33881;DHT22;20172;47.530;10.256;2022-11-30T06:02:08;6.10;99.90
33881;DHT22;20172;47.530;10.256;2022-11-30T06:04:34;6.00;99.90
33881;DHT22;20172;47.530;10.256;2022-11-30T06:06:59;6.00;99.90
33881;DHT22;20172;47.530;10.256;2022-11-30T06:09:25;6.10;99.90
33881;DHT22;20172;47.530;10.256;2022-11-30T06:11:50;6.00;99.90
33881;DHT22;20172;47.530;10.256;2022-11-30T06:14:16;6.00;99.90
33881;DHT22;20172;47.530;10.256;2022-11-30T06:16:42;5.90;99.90
33881;DHT22;20172;47.530;10.256;2022-11-30T06:19:07;5.90;99.90
33881;DHT22;20172;47.530;10.256;2022-11-30T06:21:33;6.00;99.90
33881;DHT22;20172;47.530;10.256;2022-11-30T06:24:01;6.00;99.90
33881;DHT22;20172;47.530;10.256;2022-11-30T06:26:27;5.90;99.90
33881;DHT22;20172;47.530;10.256;2022-11-30T06:28:52;5.90;99.90
33881;DHT22;20172;47.530;10.256;2022-11-30T06:31:18;5.90;99.90
33881;DHT22;20172;47.530;10.256;2022-11-30T06:33:43;6.00;99.90
33881;DHT22;20172;47.530;10.256;2022-11-30T06:36:09;5.90;99.90
33881;DHT22;20172;47.530;10.256;2022-11-30T06:38:34;5.90;99.90
33881;DHT22;20172;47.530;10.256;2022-11-30T06:41:07;5.90;99.90
33881;DHT22;20172;47.530;10.256;2022-11-30T06:43:33;5.90;99.90
33881;DHT22;20172;47.530;10.256;2022-11-30T06:46:00;5.90;99.90
33881;DHT22;20172;47.530;10.256;2022-11-30T06:48:25;5.90;99.90
33881;DHT22;20172;47.530;10.256;2022-11-30T06:50:51;5.90;99.90
33881;DHT22;20172;47.530;10.256;2022-11-30T06:53:16;5.90;99.90
33881;DHT22;20172;47.530;10.256;2022-11-30T06:55:42;5.90;99.90
33881;DHT22;20172;47.530;10.256;2022-11-30T06:58:10;5.80;99.90
33881;DHT22;20172;47.530;10.256;2022-11-30T07:00:35;5.80;99.90
33881;DHT22;20172;47.530;10.256;2022-11-30T07:03:02;5.80;99.90
33881;DHT22;20172;47.530;10.256;2022-11-30T07:05:27;5.70;99.90
33881;DHT22;20172;47.530;10.256;2022-11-30T07:07:53;5.70;99.90
33881;DHT22;20172;47.530;10.256;2022-11-30T07:10:18;5.70;99.90
33881;DHT22;20172;47.530;10.256;2022-11-30T07:12:47;5.70;99.90
33881;DHT22;20172;47.530;10.256;2022-11-30T07:15:12;5.70;99.90
33881;DHT22;20172;47.530;10.256;2022-11-30T07:17:38;5.80;99.90
33881;DHT22;20172;47.530;10.256;2022-11-30T07:20:03;5.80;99.90
33881;DHT22;20172;47.530;10.256;2022-11-30T07:22:29;5.80;99.90
33881;DHT22;20172;47.530;10.256;2022-11-30T07:24:55;5.80;99.90
33881;DHT22;20172;47.530;10.256;2022-11-30T07:27:39;5.80;99.90
33881;DHT22;20172;47.530;10.256;2022-11-30T07:30:04;5.90;99.90
33881;DHT22;20172;47.530;10.256;2022-11-30T07:32:30;5.90;99.90
33881;DHT22;20172;47.530;10.256;2022-11-30T07:34:56;5.90;99.90
33881;DHT22;20172;47.530;10.256;2022-11-30T07:37:21;5.90;99.90
33881;DHT22;20172;47.530;10.256;2022-11-30T07:39:47;6.00;99.90
33881;DHT22;20172;47.530;10.256;2022-11-30T07:42:12;6.00;99.90
33881;DHT22;20172;47.530;10.256;2022-11-30T07:44:38;6.00;99.90
33881;DHT22;20172;47.530;10.256;2022-11-30T07:47:03;6.00;99.90
33881;DHT22;20172;47.530;10.256;2022-11-30T07:49:29;6.00;99.90
33881;DHT22;20172;47.530;10.256;2022-11-30T07:51:54;5.90;99.90
33881;DHT22;20172;47.530;10.256;2022-11-30T07:54:20;5.90;99.90
33881;DHT22;20172;47.530;10.256;2022-11-30T07:56:45;6.00;99.90
33881;DHT22;20172;47.530;10.256;2022-11-30T07:59:11;5.90;99.90
33881;DHT22;20172;47.530;10.256;2022-11-30T08:01:36;5.90;99.90
33881;DHT22;20172;47.530;10.256;2022-11-30T08:04:02;6.00;99.90
33881;DHT22;20172;47.530;10.256;2022-11-30T08:06:28;6.00;99.90
33881;DHT22;20172;47.530;10.256;2022-11-30T08:08:55;6.00;99.90
33881;DHT22;20172;47.530;10.256;2022-11-30T08:11:26;6.00;99.90
33881;DHT22;20172;47.530;10.256;2022-11-30T08:13:52;6.00;99.90
33881;DHT22;20172;47.530;10.256;2022-11-30T08:16:19;6.00;99.90
33881;DHT22;20172;47.530;10.256;2022-11-30T08:18:45;6.00;99.90
33881;DHT22;20172;47.530;10.256;2022-11-30T08:21:12;6.00;99.90
33881;DHT22;20172;47.530;10.256;2022-11-30T08:23:41;6.00;99.90
33881;DHT22;20172;47.530;10.256;2022-11-30T08:26:08;6.00;99.90
33881;DHT22;20172;47.530;10.256;2022-11-30T08:28:34;6.00;99.90
33881;DHT22;20172;47.530;10.256;2022-11-30T08:31:01;6.10;99.90
33881;DHT22;20172;47.530;10.256;2022-11-30T08:33:29;6.10;99.90
33881;DHT22;20172;47.530;10.256;2022-11-30T08:36:03;6.00;99.90
33881;DHT22;20172;47.530;10.256;2022-11-30T08:38:29;6.00;99.90
33881;DHT22;20172;47.530;10.256;2022-11-30T08:40:55;6.10;99.90
33881;DHT22;20172;47.530;10.256;2022-11-30T08:43:21;6.10;99.90
33881;DHT22;20172;47.530;10.256;2022-11-30T08:45:46;6.10;99.90
33881;DHT22;20172;47.530;10.256;2022-11-30T08:48:12;6.30;99.90
33881;DHT22;20172;47.530;10.256;2022-11-30T08:50:37;6.30;99.90
33881;DHT22;20172;47.530;10.256;2022-11-30T08:53:06;6.40;99.90
33881;DHT22;20172;47.530;10.256;2022-11-30T08:55:31;6.40;99.90
33881;DHT22;20172;47.530;10.256;2022-11-30T08:57:57;6.40;99.90
33881;DHT22;20172;47.530;10.256;2022-11-30T09:00:22;6.40;99.90
33881;DHT22;20172;47.530;10.256;2022-11-30T09:02:48;6.40;99.90
33881;DHT22;20172;47.530;10.256;2022-11-30T09:05:14;6.30;99.90
33881;DHT22;20172;47.530;10.256;2022-11-30T09:07:39;6.30;99.90
33881;DHT22;20172;47.530;10.256;2022-11-30T09:10:05;6.20;99.90
33881;DHT22;20172;47.530;10.256;2022-11-30T09:12:33;6.20;99.90
33881;DHT22;20172;47.530;10.256;2022-11-30T09:14:58;6.30;99.90
33881;DHT22;20172;47.530;10.256;2022-11-30T09:17:24;6.20;99.90
33881;DHT22;20172;47.530;10.256;2022-11-30T09:19:50;6.30;99.90
33881;DHT22;20172;47.530;10.256;2022-11-30T09:22:15;6.30;99.90
33881;DHT22;20172;47.530;10.256;2022-11-30T09:24:42;6.30;99.90
33881;DHT22;20172;47.530;10.256;2022-11-30T09:27:07;6.30;99.90
33881;DHT22;20172;47.530;10.256;2022-11-30T09:29:34;6.20;99.90
33881;DHT22;20172;47.530;10.256;2022-11-30T09:32:00;6.30;99.90
33881;DHT22;20172;47.530;10.256;2022-11-30T09:34:28;6.20;99.90
33881;DHT22;20172;47.530;10.256;2022-11-30T09:36:54;6.30;99.90
33881;DHT22;20172;47.530;10.256;2022-11-30T09:39:19;6.20;99.90
33881;DHT22;20172;47.530;10.256;2022-11-30T09:41:51;6.20;99.90
33881;DHT22;20172;47.530;10.256;2022-11-30T09:44:28;6.10;99.90
33881;DHT22;20172;47.530;10.256;2022-11-30T09:49:22;5.90;99.90
33881;DHT22;20172;47.530;10.256;2022-11-30T09:51:49;5.90;99.90
33881;DHT22;20172;47.530;10.256;2022-11-30T09:54:20;5.90;99.90
33881;DHT22;20172;47.530;10.256;2022-11-30T09:56:46;6.00;99.90
33881;DHT22;20172;47.530;10.256;2022-11-30T09:59:22;5.90;99.90
33881;DHT22;20172;47.530;10.256;2022-11-30T10:01:54;6.00;99.90
33881;DHT22;20172;47.530;10.256;2022-11-30T10:04:23;5.90;99.90
33881;DHT22;20172;47.530;10.256;2022-11-30T10:07:01;5.90;99.90
33881;DHT22;20172;47.530;10.256;2022-11-30T10:20:05;5.90;99.90
33881;DHT22;20172;47.530;10.256;2022-11-30T10:23:18;5.90;99.90
33881;DHT22;20172;47.530;10.256;2022-11-30T10:25:24;5.90;99.90
33881;DHT22;20172;47.530;10.256;2022-11-30T10:28:05;5.90;99.90
33881;DHT22;20172;47.530;10.256;2022-11-30T10:30:36;5.90;99.90
33881;DHT22;20172;47.530;10.256;2022-11-30T10:33:15;5.80;99.90
33881;DHT22;20172;47.530;10.256;2022-11-30T10:35:48;5.80;99.90
33881;DHT22;20172;47.530;10.256;2022-11-30T10:45:46;5.70;99.90
33881;DHT22;20172;47.530;10.256;2022-11-30T10:48:20;5.70;99.90
33881;DHT22;20172;47.530;10.256;2022-11-30T10:50:48;5.70;99.90
33881;DHT22;20172;47.530;10.256;2022-11-30T10:53:14;5.70;99.90
33881;DHT22;20172;47.530;10.256;2022-11-30T10:55:44;5.70;99.90
33881;DHT22;20172;47.530;10.256;2022-11-30T11:00:38;5.70;99.90
33881;DHT22;20172;47.530;10.256;2022-11-30T11:03:22;5.60;99.90
33881;DHT22;20172;47.530;10.256;2022-11-30T11:05:48;5.60;99.90
33881;DHT22;20172;47.530;10.256;2022-11-30T11:08:26;5.60;99.90
33881;DHT22;20172;47.530;10.256;2022-11-30T11:10:52;5.60;99.90
33881;DHT22;20172;47.530;10.256;2022-11-30T11:16:03;5.50;99.90
33881;DHT22;20172;47.530;10.256;2022-11-30T11:18:32;5.40;99.90
33881;DHT22;20172;47.530;10.256;2022-11-30T11:21:02;5.40;99.90
33881;DHT22;20172;47.530;10.256;2022-11-30T11:23:30;5.50;99.90
33881;DHT22;20172;47.530;10.256;2022-11-30T11:25:56;5.50;99.90
33881;DHT22;20172;47.530;10.256;2022-11-30T11:28:24;5.50;99.90
33881;DHT22;20172;47.530;10.256;2022-11-30T11:30:51;5.60;99.90
33881;DHT22;20172;47.530;10.256;2022-11-30T11:33:24;5.50;99.90
33881;DHT22;20172;47.530;10.256;2022-11-30T11:35:51;5.60;99.90
33881;DHT22;20172;47.530;10.256;2022-11-30T11:41:02;5.60;99.90
33881;DHT22;20172;47.530;10.256;2022-11-30T11:43:30;5.60;99.90
33881;DHT22;20172;47.530;10.256;2022-11-30T11:46:00;5.50;99.90
33881;DHT22;20172;47.530;10.256;2022-11-30T11:50:56;5.50;99.90
33881;DHT22;20172;47.530;10.256;2022-11-30T11:53:55;5.50;99.90
33881;DHT22;20172;47.530;10.256;2022-11-30T11:56:19;5.50;99.90
33881;DHT22;20172;47.530;10.256;2022-11-30T11:58:52;5.50;99.90
33881;DHT22;20172;47.530;10.256;2022-11-30T12:06:45;5.60;99.90
33881;DHT22;20172;47.530;10.256;2022-11-30T12:09:17;5.70;99.90
33881;DHT22;20172;47.530;10.256;2022-11-30T12:11:44;5.70;99.90
33881;DHT22;20172;47.530;10.256;2022-11-30T12:14:11;5.80;99.90
33881;DHT22;20172;47.530;10.256;2022-11-30T12:17:02;5.70;99.90
33881;DHT22;20172;47.530;10.256;2022-11-30T12:19:41;5.70;99.90
33881;DHT22;20172;47.530;10.256;2022-11-30T12:27:15;5.80;99.90
33881;DHT22;20172;47.530;10.256;2022-11-30T12:39:36;5.80;99.90
33881;DHT22;20172;47.530;10.256;2022-11-30T12:42:09;5.80;99.90
33881;DHT22;20172;47.530;10.256;2022-11-30T12:49:45;5.80;99.90
33881;DHT22;20172;47.530;10.256;2022-11-30T12:52:19;5.80;99.90
33881;DHT22;20172;47.530;10.256;2022-11-30T12:57:29;5.80;99.90
33881;DHT22;20172;47.530;10.256;2022-11-30T13:05:09;5.80;99.90
33881;DHT22;20172;47.530;10.256;2022-11-30T13:07:38;5.80;99.90
33881;DHT22;20172;47.530;10.256;2022-11-30T13:10:06;5.90;99.90
33881;DHT22;20172;47.530;10.256;2022-11-30T13:12:38;6.10;99.90
33881;DHT22;20172;47.530;10.256;2022-11-30T13:15:16;6.10;99.90
33881;DHT22;20172;47.530;10.256;2022-11-30T13:17:43;6.10;99.90
33881;DHT22;20172;47.530;10.256;2022-11-30T13:28:16;6.10;99.90
33881;DHT22;20172;47.530;10.256;2022-11-30T13:41:34;5.90;99.90
33881;DHT22;20172;47.530;10.256;2022-11-30T13:44:00;6.00;99.90
33881;DHT22;20172;47.530;10.256;2022-11-30T13:46:25;5.90;99.90
33881;DHT22;20172;47.530;10.256;2022-11-30T13:49:09;5.90;99.90
33881;DHT22;20172;47.530;10.256;2022-11-30T13:51:36;5.80;99.90
33881;DHT22;20172;47.530;10.256;2022-11-30T13:56:47;5.80;99.90
33881;DHT22;20172;47.530;10.256;2022-11-30T14:01:51;5.80;99.90
33881;DHT22;20172;47.530;10.256;2022-11-30T14:09:15;5.80;99.90
33881;DHT22;20172;47.530;10.256;2022-11-30T14:11:41;5.80;99.90
33881;DHT22;20172;47.530;10.256;2022-11-30T14:15:18;5.80;99.90
33881;DHT22;20172;47.530;10.256;2022-11-30T14:17:02;5.80;99.90
33881;DHT22;20172;47.530;10.256;2022-11-30T14:19:28;5.70;99.90
33881;DHT22;20172;47.530;10.256;2022-11-30T14:21:53;5.70;99.90
33881;DHT22;20172;47.530;10.256;2022-11-30T14:24:20;5.70;99.90
33881;DHT22;20172;47.530;10.256;2022-11-30T14:26:47;5.70;99.90
33881;DHT22;20172;47.530;10.256;2022-11-30T14:31:57;5.70;99.90
33881;DHT22;20172;47.530;10.256;2022-11-30T14:34:36;5.60;99.90
33881;DHT22;20172;47.530;10.256;2022-11-30T14:39:45;5.60;99.90
33881;DHT22;20172;47.530;10.256;2022-11-30T14:42:21;5.60;99.90
33881;DHT22;20172;47.530;10.256;2022-11-30T14:44:46;5.60;99.90
33881;DHT22;20172;47.530;10.256;2022-11-30T14:47:23;5.60;99.90
33881;DHT22;20172;47.530;10.256;2022-11-30T14:49:49;5.50;99.90
33881;DHT22;20172;47.530;10.256;2022-11-30T14:52:21;5.50;99.90
33881;DHT22;20172;47.530;10.256;2022-11-30T14:59:48;5.30;99.90
33881;DHT22;20172;47.530;10.256;2022-11-30T15:02:28;5.40;99.90
33881;DHT22;20172;47.530;10.256;2022-11-30T15:04:54;5.40;99.90
33881;DHT22;20172;47.530;10.256;2022-11-30T15:07:21;5.40;99.90
33881;DHT22;20172;47.530;10.256;2022-11-30T15:09:47;5.40;99.90
33881;DHT22;20172;47.530;10.256;2022-11-30T15:12:16;5.30;99.90
33881;DHT22;20172;47.530;10.256;2022-11-30T15:14:59;5.30;99.90
33881;DHT22;20172;47.530;10.256;2022-11-30T15:17:25;5.30;99.90
33881;DHT22;20172;47.530;10.256;2022-11-30T15:19:50;5.20;99.90
33881;DHT22;20172;47.530;10.256;2022-11-30T15:22:20;5.30;99.90
33881;DHT22;20172;47.530;10.256;2022-11-30T15:24:46;5.30;99.90
33881;DHT22;20172;47.530;10.256;2022-11-30T15:27:12;5.30;99.90
33881;DHT22;20172;47.530;10.256;2022-11-30T15:29:46;5.20;99.90
33881;DHT22;20172;47.530;10.256;2022-11-30T15:32:16;5.30;99.90
33881;DHT22;20172;47.530;10.256;2022-11-30T15:37:09;5.20;99.90
33881;DHT22;20172;47.530;10.256;2022-11-30T15:39:35;5.20;99.90
33881;DHT22;20172;47.530;10.256;2022-11-30T15:42:02;5.10;99.90
33881;DHT22;20172;47.530;10.256;2022-11-30T15:46:55;5.20;99.90
33881;DHT22;20172;47.530;10.256;2022-11-30T15:52:05;5.10;99.90
33881;DHT22;20172;47.530;10.256;2022-11-30T15:54:40;5.10;99.90
33881;DHT22;20172;47.530;10.256;2022-11-30T15:57:06;5.10;99.90
33881;DHT22;20172;47.530;10.256;2022-11-30T15:59:32;5.10;99.90
33881;DHT22;20172;47.530;10.256;2022-11-30T16:01:59;5.10;99.90
33881;DHT22;20172;47.530;10.256;2022-11-30T16:08:12;5.00;99.90
33881;DHT22;20172;47.530;10.256;2022-11-30T16:10:14;5.00;99.90
33881;DHT22;20172;47.530;10.256;2022-11-30T16:12:43;5.00;99.90
33881;DHT22;20172;47.530;10.256;2022-11-30T16:15:23;4.90;99.90
33881;DHT22;20172;47.530;10.256;2022-11-30T16:17:49;5.00;99.90
33881;DHT22;20172;47.530;10.256;2022-11-30T16:20:15;4.90;99.90
33881;DHT22;20172;47.530;10.256;2022-11-30T16:22:41;5.00;99.90
33881;DHT22;20172;47.530;10.256;2022-11-30T16:25:11;5.00;99.90
33881;DHT22;20172;47.530;10.256;2022-11-30T16:27:38;4.90;99.90
33881;DHT22;20172;47.530;10.256;2022-11-30T16:30:04;5.00;99.90
33881;DHT22;20172;47.530;10.256;2022-11-30T16:32:30;4.90;99.90
33881;DHT22;20172;47.530;10.256;2022-11-30T16:34:55;4.90;99.90
33881;DHT22;20172;47.530;10.256;2022-11-30T16:37:21;4.90;99.90
33881;DHT22;20172;47.530;10.256;2022-11-30T16:39:46;4.80;99.90
33881;DHT22;20172;47.530;10.256;2022-11-30T16:42:12;4.80;99.90
33881;DHT22;20172;47.530;10.256;2022-11-30T16:44:38;4.80;99.90
33881;DHT22;20172;47.530;10.256;2022-11-30T16:47:03;4.80;99.90
33881;DHT22;20172;47.530;10.256;2022-11-30T16:49:29;4.80;99.90
33881;DHT22;20172;47.530;10.256;2022-11-30T16:51:54;4.80;99.90
33881;DHT22;20172;47.530;10.256;2022-11-30T16:54:22;4.80;99.90
33881;DHT22;20172;47.530;10.256;2022-11-30T16:56:48;4.80;99.90
33881;DHT22;20172;47.530;10.256;2022-11-30T16:59:13;4.80;99.90
33881;DHT22;20172;47.530;10.256;2022-11-30T17:01:43;4.90;99.90
33881;DHT22;20172;47.530;10.256;2022-11-30T17:04:20;4.80;99.90
33881;DHT22;20172;47.530;10.256;2022-11-30T17:06:47;4.80;99.90
33881;DHT22;20172;47.530;10.256;2022-11-30T17:09:13;4.70;99.90
33881;DHT22;20172;47.530;10.256;2022-11-30T17:11:38;4.70;99.90
33881;DHT22;20172;47.530;10.256;2022-11-30T17:14:04;4.70;99.90
33881;DHT22;20172;47.530;10.256;2022-11-30T17:16:30;4.70;99.90
33881;DHT22;20172;47.530;10.256;2022-11-30T17:18:55;4.70;99.90
33881;DHT22;20172;47.530;10.256;2022-11-30T17:21:28;4.70;99.90
33881;DHT22;20172;47.530;10.256;2022-11-30T17:23:54;4.60;99.90
33881;DHT22;20172;47.530;10.256;2022-11-30T17:26:20;4.60;99.90
33881;DHT22;20172;47.530;10.256;2022-11-30T17:28:46;4.60;99.90
33881;DHT22;20172;47.530;10.256;2022-11-30T17:31:12;4.60;99.90
33881;DHT22;20172;47.530;10.256;2022-11-30T17:33:37;4.60;99.90
33881;DHT22;20172;47.530;10.256;2022-11-30T17:36:04;4.70;99.90
33881;DHT22;20172;47.530;10.256;2022-11-30T17:38:30;4.60;99.90
33881;DHT22;20172;47.530;10.256;2022-11-30T17:40:56;4.70;99.90